sensor_id;sensor_type;location;lat;lon;timestamp;P1;durP1;ratioP1;P2;durP2;ratioP2
40695;SDS011;40425;51.102;17.208;2023-05-02T00:00:23;5.88;;;5.13;;
40695;SDS011;40425;51.102;17.208;2023-05-02T00:05:24;7.20;;;6.50;;
40695;SDS011;40425;51.102;17.208;2023-05-02T00:10:26;7.82;;;6.78;;
40695;SDS011;40425;51.102;17.208;2023-05-02T00:15:27;7.75;;;6.07;;
40695;SDS011;40425;51.102;17.208;2023-05-02T00:20:27;14.52;;;6.35;;
40695;SDS011;40425;51.102;17.208;2023-05-02T00:25:28;9.18;;;6.75;;
40695;SDS011;40425;51.102;17.208;2023-05-02T00:30:29;9.80;;;6.97;;
40695;SDS011;40425;51.102;17.208;2023-05-02T00:35:31;11.80;;;6.70;;
40695;SDS011;40425;51.102;17.208;2023-05-02T00:40:42;8.52;;;6.07;;
40695;SDS011;40425;51.102;17.208;2023-05-02T00:45:44;8.02;;;5.20;;
40695;SDS011;40425;51.102;17.208;2023-05-02T00:50:45;10.15;;;5.25;;
40695;SDS011;40425;51.102;17.208;2023-05-02T00:55:46;7.10;;;5.43;;
40695;SDS011;40425;51.102;17.208;2023-05-02T01:06:38;12.68;;;6.60;;
40695;SDS011;40425;51.102;17.208;2023-05-02T01:16:56;8.40;;;5.85;;
40695;SDS011;40425;51.102;17.208;2023-05-02T01:22:04;8.57;;;6.28;;
40695;SDS011;40425;51.102;17.208;2023-05-02T01:27:14;8.30;;;6.47;;
40695;SDS011;40425;51.102;17.208;2023-05-02T01:32:23;8.02;;;6.57;;
40695;SDS011;40425;51.102;17.208;2023-05-02T01:37:26;7.45;;;5.68;;
40695;SDS011;40425;51.102;17.208;2023-05-02T01:42:28;10.98;;;5.88;;
40695;SDS011;40425;51.102;17.208;2023-05-02T01:47:32;8.45;;;5.43;;
40695;SDS011;40425;51.102;17.208;2023-05-02T01:52:36;8.93;;;5.75;;
40695;SDS011;40425;51.102;17.208;2023-05-02T01:57:38;7.18;;;5.72;;
40695;SDS011;40425;51.102;17.208;2023-05-02T02:02:41;8.50;;;5.85;;
40695;SDS011;40425;51.102;17.208;2023-05-02T02:07:44;9.80;;;5.70;;
40695;SDS011;40425;51.102;17.208;2023-05-02T02:12:52;8.65;;;4.97;;
40695;SDS011;40425;51.102;17.208;2023-05-02T02:17:59;8.27;;;5.68;;
40695;SDS011;40425;51.102;17.208;2023-05-02T02:28:09;6.93;;;5.82;;
40695;SDS011;40425;51.102;17.208;2023-05-02T02:33:10;6.68;;;5.65;;
40695;SDS011;40425;51.102;17.208;2023-05-02T02:38:19;7.47;;;5.50;;
40695;SDS011;40425;51.102;17.208;2023-05-02T02:49:08;7.00;;;5.63;;
40695;SDS011;40425;51.102;17.208;2023-05-02T02:54:51;9.27;;;5.90;;
40695;SDS011;40425;51.102;17.208;2023-05-02T03:00:04;12.15;;;6.15;;
40695;SDS011;40425;51.102;17.208;2023-05-02T03:05:10;7.85;;;6.05;;
40695;SDS011;40425;51.102;17.208;2023-05-02T03:10:12;13.43;;;6.40;;
40695;SDS011;40425;51.102;17.208;2023-05-02T03:20:29;6.53;;;5.28;;
40695;SDS011;40425;51.102;17.208;2023-05-02T03:25:30;12.27;;;6.05;;
40695;SDS011;40425;51.102;17.208;2023-05-02T03:30:31;7.40;;;5.28;;
40695;SDS011;40425;51.102;17.208;2023-05-02T03:35:32;7.80;;;4.32;;
40695;SDS011;40425;51.102;17.208;2023-05-02T03:40:33;10.02;;;5.00;;
40695;SDS011;40425;51.102;17.208;2023-05-02T03:45:34;6.85;;;4.28;;
40695;SDS011;40425;51.102;17.208;2023-05-02T03:50:35;6.00;;;4.68;;
40695;SDS011;40425;51.102;17.208;2023-05-02T03:55:39;8.90;;;4.53;;
40695;SDS011;40425;51.102;17.208;2023-05-02T04:00:40;9.07;;;3.72;;
40695;SDS011;40425;51.102;17.208;2023-05-02T04:10:43;3.47;;;2.53;;
40695;SDS011;40425;51.102;17.208;2023-05-02T04:15:44;7.00;;;3.28;;
40695;SDS011;40425;51.102;17.208;2023-05-02T04:20:45;4.00;;;2.70;;
40695;SDS011;40425;51.102;17.208;2023-05-02T04:25:50;5.05;;;2.50;;
40695;SDS011;40425;51.102;17.208;2023-05-02T04:30:55;5.90;;;2.05;;
40695;SDS011;40425;51.102;17.208;2023-05-02T04:35:56;5.90;;;2.63;;
40695;SDS011;40425;51.102;17.208;2023-05-02T04:40:57;6.60;;;1.75;;
40695;SDS011;40425;51.102;17.208;2023-05-02T04:45:58;2.70;;;1.85;;
40695;SDS011;40425;51.102;17.208;2023-05-02T04:50:59;4.28;;;2.13;;
40695;SDS011;40425;51.102;17.208;2023-05-02T04:55:59;9.18;;;2.40;;
40695;SDS011;40425;51.102;17.208;2023-05-02T05:01:00;5.13;;;2.55;;
40695;SDS011;40425;51.102;17.208;2023-05-02T05:06:01;4.50;;;2.92;;
40695;SDS011;40425;51.102;17.208;2023-05-02T05:11:02;4.57;;;3.00;;
40695;SDS011;40425;51.102;17.208;2023-05-02T05:16:04;7.10;;;3.53;;
40695;SDS011;40425;51.102;17.208;2023-05-02T05:21:08;7.10;;;3.40;;
40695;SDS011;40425;51.102;17.208;2023-05-02T05:31:12;5.90;;;4.60;;
40695;SDS011;40425;51.102;17.208;2023-05-02T05:36:16;10.48;;;3.92;;
40695;SDS011;40425;51.102;17.208;2023-05-02T05:41:17;5.90;;;4.18;;
40695;SDS011;40425;51.102;17.208;2023-05-02T05:46:18;6.65;;;4.15;;
40695;SDS011;40425;51.102;17.208;2023-05-02T05:51:19;7.38;;;3.88;;
40695;SDS011;40425;51.102;17.208;2023-05-02T05:56:20;6.05;;;4.03;;
40695;SDS011;40425;51.102;17.208;2023-05-02T06:01:21;6.95;;;4.72;;
40695;SDS011;40425;51.102;17.208;2023-05-02T06:06:22;5.45;;;4.07;;
40695;SDS011;40425;51.102;17.208;2023-05-02T06:11:23;10.30;;;4.72;;
40695;SDS011;40425;51.102;17.208;2023-05-02T06:31:54;7.70;;;5.13;;
40695;SDS011;40425;51.102;17.208;2023-05-02T06:36:56;9.10;;;4.85;;
40695;SDS011;40425;51.102;17.208;2023-05-02T06:41:57;6.82;;;4.40;;
40695;SDS011;40425;51.102;17.208;2023-05-02T06:47:00;6.45;;;4.45;;
40695;SDS011;40425;51.102;17.208;2023-05-02T06:52:03;6.50;;;4.57;;
40695;SDS011;40425;51.102;17.208;2023-05-02T06:57:04;5.90;;;4.47;;
40695;SDS011;40425;51.102;17.208;2023-05-02T07:02:05;7.43;;;4.63;;
40695;SDS011;40425;51.102;17.208;2023-05-02T07:07:06;7.15;;;4.88;;
40695;SDS011;40425;51.102;17.208;2023-05-02T07:12:06;6.20;;;4.63;;
40695;SDS011;40425;51.102;17.208;2023-05-02T07:17:08;6.32;;;4.25;;
40695;SDS011;40425;51.102;17.208;2023-05-02T07:22:09;7.38;;;4.80;;
40695;SDS011;40425;51.102;17.208;2023-05-02T07:27:10;7.97;;;4.03;;
40695;SDS011;40425;51.102;17.208;2023-05-02T07:32:12;6.10;;;4.35;;
40695;SDS011;40425;51.102;17.208;2023-05-02T07:37:12;5.65;;;4.20;;
40695;SDS011;40425;51.102;17.208;2023-05-02T07:42:13;6.78;;;4.25;;
40695;SDS011;40425;51.102;17.208;2023-05-02T07:47:14;9.35;;;4.50;;
40695;SDS011;40425;51.102;17.208;2023-05-02T07:52:15;6.18;;;4.20;;
40695;SDS011;40425;51.102;17.208;2023-05-02T07:57:16;4.10;;;3.70;;
40695;SDS011;40425;51.102;17.208;2023-05-02T08:02:18;8.02;;;4.32;;
40695;SDS011;40425;51.102;17.208;2023-05-02T08:07:19;4.82;;;3.75;;
40695;SDS011;40425;51.102;17.208;2023-05-02T08:12:20;4.68;;;3.85;;
40695;SDS011;40425;51.102;17.208;2023-05-02T08:17:21;7.93;;;3.97;;
40695;SDS011;40425;51.102;17.208;2023-05-02T08:22:22;6.85;;;4.53;;
40695;SDS011;40425;51.102;17.208;2023-05-02T08:27:23;5.50;;;3.80;;
40695;SDS011;40425;51.102;17.208;2023-05-02T08:32:24;5.32;;;3.42;;
40695;SDS011;40425;51.102;17.208;2023-05-02T08:37:25;4.60;;;3.78;;
40695;SDS011;40425;51.102;17.208;2023-05-02T08:42:27;5.28;;;3.63;;
40695;SDS011;40425;51.102;17.208;2023-05-02T08:47:31;4.72;;;3.60;;
40695;SDS011;40425;51.102;17.208;2023-05-02T08:52:32;7.20;;;3.75;;
40695;SDS011;40425;51.102;17.208;2023-05-02T08:57:34;5.28;;;4.18;;
40695;SDS011;40425;51.102;17.208;2023-05-02T09:08:01;7.82;;;4.70;;
40695;SDS011;40425;51.102;17.208;2023-05-02T09:13:26;7.13;;;4.55;;
40695;SDS011;40425;51.102;17.208;2023-05-02T09:18:54;6.97;;;5.32;;
40695;SDS011;40425;51.102;17.208;2023-05-02T09:23:55;7.13;;;5.32;;
40695;SDS011;40425;51.102;17.208;2023-05-02T09:28:59;7.57;;;5.00;;
40695;SDS011;40425;51.102;17.208;2023-05-02T09:34:12;7.10;;;5.05;;
40695;SDS011;40425;51.102;17.208;2023-05-02T09:39:16;7.57;;;5.10;;
40695;SDS011;40425;51.102;17.208;2023-05-02T09:44:18;8.93;;;6.15;;
40695;SDS011;40425;51.102;17.208;2023-05-02T09:49:39;6.35;;;4.97;;
40695;SDS011;40425;51.102;17.208;2023-05-02T09:59:58;9.50;;;5.50;;
40695;SDS011;40425;51.102;17.208;2023-05-02T10:04:59;6.35;;;4.80;;
40695;SDS011;40425;51.102;17.208;2023-05-02T10:10:02;17.42;;;6.30;;
40695;SDS011;40425;51.102;17.208;2023-05-02T10:15:03;8.32;;;5.57;;
40695;SDS011;40425;51.102;17.208;2023-05-02T10:20:06;9.80;;;5.47;;
40695;SDS011;40425;51.102;17.208;2023-05-02T10:25:10;9.85;;;5.57;;
40695;SDS011;40425;51.102;17.208;2023-05-02T10:30:12;6.72;;;5.25;;
40695;SDS011;40425;51.102;17.208;2023-05-02T10:35:14;8.02;;;5.63;;
40695;SDS011;40425;51.102;17.208;2023-05-02T10:40:15;7.75;;;5.18;;
40695;SDS011;40425;51.102;17.208;2023-05-02T10:45:31;7.68;;;4.82;;
40695;SDS011;40425;51.102;17.208;2023-05-02T10:50:53;9.60;;;5.15;;
40695;SDS011;40425;51.102;17.208;2023-05-02T11:06:28;10.20;;;5.57;;
40695;SDS011;40425;51.102;17.208;2023-05-02T11:11:45;7.70;;;5.20;;
40695;SDS011;40425;51.102;17.208;2023-05-02T11:17:06;8.80;;;3.47;;
40695;SDS011;40425;51.102;17.208;2023-05-02T11:27:41;9.18;;;2.78;;
40695;SDS011;40425;51.102;17.208;2023-05-02T11:42:49;6.68;;;4.22;;
40695;SDS011;40425;51.102;17.208;2023-05-02T11:47:50;6.38;;;2.80;;
40695;SDS011;40425;51.102;17.208;2023-05-02T11:52:53;6.65;;;3.40;;
40695;SDS011;40425;51.102;17.208;2023-05-02T11:57:54;6.93;;;3.80;;
40695;SDS011;40425;51.102;17.208;2023-05-02T12:02:55;7.40;;;3.45;;
40695;SDS011;40425;51.102;17.208;2023-05-02T12:07:56;6.45;;;3.03;;
40695;SDS011;40425;51.102;17.208;2023-05-02T12:13:02;6.82;;;3.65;;
40695;SDS011;40425;51.102;17.208;2023-05-02T12:18:04;7.00;;;3.40;;
40695;SDS011;40425;51.102;17.208;2023-05-02T12:23:09;4.30;;;2.67;;
40695;SDS011;40425;51.102;17.208;2023-05-02T12:28:10;7.45;;;3.38;;
40695;SDS011;40425;51.102;17.208;2023-05-02T12:33:11;4.55;;;2.70;;
40695;SDS011;40425;51.102;17.208;2023-05-02T12:38:13;9.23;;;3.10;;
40695;SDS011;40425;51.102;17.208;2023-05-02T12:43:16;5.43;;;2.80;;
40695;SDS011;40425;51.102;17.208;2023-05-02T12:48:24;7.00;;;2.90;;
40695;SDS011;40425;51.102;17.208;2023-05-02T12:53:42;12.05;;;4.00;;
40695;SDS011;40425;51.102;17.208;2023-05-02T12:58:47;3.38;;;1.80;;
40695;SDS011;40425;51.102;17.208;2023-05-02T13:03:49;7.03;;;2.42;;
40695;SDS011;40425;51.102;17.208;2023-05-02T13:08:50;3.65;;;2.03;;
40695;SDS011;40425;51.102;17.208;2023-05-02T13:13:51;2.55;;;2.08;;
40695;SDS011;40425;51.102;17.208;2023-05-02T13:18:52;3.05;;;2.15;;
40695;SDS011;40425;51.102;17.208;2023-05-02T13:23:53;5.38;;;2.42;;
40695;SDS011;40425;51.102;17.208;2023-05-02T13:28:54;3.50;;;2.00;;
40695;SDS011;40425;51.102;17.208;2023-05-02T13:33:55;3.80;;;1.45;;
40695;SDS011;40425;51.102;17.208;2023-05-02T13:38:56;1.50;;;0.93;;
40695;SDS011;40425;51.102;17.208;2023-05-02T13:43:57;2.13;;;0.80;;
40695;SDS011;40425;51.102;17.208;2023-05-02T13:48:57;5.55;;;0.70;;
40695;SDS011;40425;51.102;17.208;2023-05-02T13:53:58;1.17;;;0.60;;
40695;SDS011;40425;51.102;17.208;2023-05-02T13:59:00;1.42;;;0.40;;
40695;SDS011;40425;51.102;17.208;2023-05-02T14:04:01;1.75;;;0.55;;
40695;SDS011;40425;51.102;17.208;2023-05-02T14:09:06;0.95;;;0.40;;
40695;SDS011;40425;51.102;17.208;2023-05-02T14:14:07;1.23;;;0.40;;
40695;SDS011;40425;51.102;17.208;2023-05-02T14:19:11;1.00;;;0.40;;
40695;SDS011;40425;51.102;17.208;2023-05-02T14:24:12;1.10;;;0.52;;
40695;SDS011;40425;51.102;17.208;2023-05-02T14:29:15;1.55;;;0.60;;
40695;SDS011;40425;51.102;17.208;2023-05-02T14:34:17;1.40;;;0.52;;
40695;SDS011;40425;51.102;17.208;2023-05-02T14:39:18;1.20;;;0.65;;
40695;SDS011;40425;51.102;17.208;2023-05-02T14:44:19;1.17;;;0.43;;
40695;SDS011;40425;51.102;17.208;2023-05-02T14:49:20;1.80;;;0.50;;
40695;SDS011;40425;51.102;17.208;2023-05-02T14:54:24;2.65;;;0.57;;
40695;SDS011;40425;51.102;17.208;2023-05-02T14:59:27;3.05;;;0.70;;
40695;SDS011;40425;51.102;17.208;2023-05-02T15:04:29;3.70;;;0.50;;
40695;SDS011;40425;51.102;17.208;2023-05-02T15:09:30;1.42;;;0.52;;
40695;SDS011;40425;51.102;17.208;2023-05-02T15:14:30;1.55;;;0.65;;
40695;SDS011;40425;51.102;17.208;2023-05-02T15:19:31;3.70;;;0.80;;
40695;SDS011;40425;51.102;17.208;2023-05-02T15:24:32;3.15;;;1.00;;
40695;SDS011;40425;51.102;17.208;2023-05-02T15:29:33;5.25;;;0.70;;
40695;SDS011;40425;51.102;17.208;2023-05-02T15:34:34;3.97;;;1.00;;
40695;SDS011;40425;51.102;17.208;2023-05-02T15:39:37;7.50;;;1.30;;
40695;SDS011;40425;51.102;17.208;2023-05-02T15:44:38;1.95;;;0.85;;
40695;SDS011;40425;51.102;17.208;2023-05-02T15:49:39;1.73;;;1.02;;
40695;SDS011;40425;51.102;17.208;2023-05-02T15:54:40;4.00;;;0.88;;
40695;SDS011;40425;51.102;17.208;2023-05-02T15:59:42;4.57;;;1.00;;
40695;SDS011;40425;51.102;17.208;2023-05-02T16:04:43;4.40;;;2.33;;
40695;SDS011;40425;51.102;17.208;2023-05-02T16:09:44;5.55;;;2.42;;
40695;SDS011;40425;51.102;17.208;2023-05-02T16:14:45;3.78;;;2.70;;
40695;SDS011;40425;51.102;17.208;2023-05-02T16:19:46;6.30;;;2.92;;
40695;SDS011;40425;51.102;17.208;2023-05-02T16:24:47;7.30;;;3.78;;
40695;SDS011;40425;51.102;17.208;2023-05-02T16:29:47;6.05;;;4.57;;
40695;SDS011;40425;51.102;17.208;2023-05-02T16:34:48;7.55;;;5.45;;
40695;SDS011;40425;51.102;17.208;2023-05-02T16:39:49;8.00;;;5.68;;
40695;SDS011;40425;51.102;17.208;2023-05-02T16:44:50;7.00;;;4.90;;
40695;SDS011;40425;51.102;17.208;2023-05-02T16:49:54;21.70;;;8.48;;
40695;SDS011;40425;51.102;17.208;2023-05-02T16:59:56;9.40;;;6.95;;
40695;SDS011;40425;51.102;17.208;2023-05-02T17:04:57;10.50;;;6.93;;
40695;SDS011;40425;51.102;17.208;2023-05-02T17:09:58;8.20;;;5.70;;
40695;SDS011;40425;51.102;17.208;2023-05-02T17:14:59;7.85;;;6.35;;
40695;SDS011;40425;51.102;17.208;2023-05-02T17:20:00;7.40;;;6.05;;
40695;SDS011;40425;51.102;17.208;2023-05-02T17:25:01;7.15;;;5.13;;
40695;SDS011;40425;51.102;17.208;2023-05-02T17:30:02;9.27;;;5.38;;
40695;SDS011;40425;51.102;17.208;2023-05-02T17:35:03;7.70;;;5.82;;
40695;SDS011;40425;51.102;17.208;2023-05-02T17:40:05;7.65;;;6.22;;
40695;SDS011;40425;51.102;17.208;2023-05-02T17:45:07;13.23;;;6.18;;
40695;SDS011;40425;51.102;17.208;2023-05-02T17:50:09;10.10;;;6.65;;
40695;SDS011;40425;51.102;17.208;2023-05-02T17:55:10;9.00;;;6.68;;
40695;SDS011;40425;51.102;17.208;2023-05-02T18:00:11;11.98;;;7.78;;
40695;SDS011;40425;51.102;17.208;2023-05-02T18:05:13;10.27;;;7.82;;
40695;SDS011;40425;51.102;17.208;2023-05-02T18:10:14;12.07;;;8.23;;
40695;SDS011;40425;51.102;17.208;2023-05-02T18:15:15;11.15;;;7.85;;
40695;SDS011;40425;51.102;17.208;2023-05-02T18:20:16;12.32;;;9.18;;
40695;SDS011;40425;51.102;17.208;2023-05-02T18:25:17;12.77;;;8.45;;
40695;SDS011;40425;51.102;17.208;2023-05-02T18:30:18;6.63;;;4.90;;
40695;SDS011;40425;51.102;17.208;2023-05-02T18:35:19;8.63;;;6.90;;
40695;SDS011;40425;51.102;17.208;2023-05-02T18:40:20;10.43;;;7.20;;
40695;SDS011;40425;51.102;17.208;2023-05-02T18:45:21;11.63;;;6.70;;
40695;SDS011;40425;51.102;17.208;2023-05-02T18:50:22;6.93;;;5.55;;
40695;SDS011;40425;51.102;17.208;2023-05-02T18:55:25;7.55;;;5.70;;
40695;SDS011;40425;51.102;17.208;2023-05-02T19:00:27;10.20;;;6.90;;
40695;SDS011;40425;51.102;17.208;2023-05-02T19:05:32;7.65;;;6.32;;
40695;SDS011;40425;51.102;17.208;2023-05-02T19:10:34;8.73;;;6.97;;
40695;SDS011;40425;51.102;17.208;2023-05-02T19:15:36;12.13;;;6.85;;
40695;SDS011;40425;51.102;17.208;2023-05-02T19:20:38;10.27;;;7.10;;
40695;SDS011;40425;51.102;17.208;2023-05-02T19:25:39;10.07;;;7.57;;
40695;SDS011;40425;51.102;17.208;2023-05-02T19:30:42;13.63;;;6.38;;
40695;SDS011;40425;51.102;17.208;2023-05-02T19:35:44;10.18;;;6.57;;
40695;SDS011;40425;51.102;17.208;2023-05-02T19:40:47;5.60;;;4.95;;
40695;SDS011;40425;51.102;17.208;2023-05-02T19:45:48;11.82;;;6.47;;
40695;SDS011;40425;51.102;17.208;2023-05-02T19:50:50;9.95;;;7.60;;
40695;SDS011;40425;51.102;17.208;2023-05-02T19:55:52;11.25;;;6.43;;
40695;SDS011;40425;51.102;17.208;2023-05-02T20:00:53;9.20;;;6.70;;
40695;SDS011;40425;51.102;17.208;2023-05-02T20:05:55;7.13;;;5.25;;
40695;SDS011;40425;51.102;17.208;2023-05-02T20:10:57;7.78;;;5.47;;
40695;SDS011;40425;51.102;17.208;2023-05-02T20:16:00;11.18;;;5.10;;
40695;SDS011;40425;51.102;17.208;2023-05-02T20:21:01;8.07;;;5.15;;
40695;SDS011;40425;51.102;17.208;2023-05-02T20:26:03;9.30;;;7.57;;
40695;SDS011;40425;51.102;17.208;2023-05-02T20:31:05;11.50;;;8.32;;
40695;SDS011;40425;51.102;17.208;2023-05-02T20:36:06;10.35;;;7.53;;
40695;SDS011;40425;51.102;17.208;2023-05-02T20:41:07;7.53;;;5.30;;
40695;SDS011;40425;51.102;17.208;2023-05-02T20:46:11;7.15;;;5.25;;
40695;SDS011;40425;51.102;17.208;2023-05-02T20:51:15;7.05;;;4.50;;
40695;SDS011;40425;51.102;17.208;2023-05-02T20:56:16;7.05;;;4.32;;
40695;SDS011;40425;51.102;17.208;2023-05-02T21:01:18;4.90;;;3.65;;
40695;SDS011;40425;51.102;17.208;2023-05-02T21:06:19;6.63;;;3.58;;
40695;SDS011;40425;51.102;17.208;2023-05-02T21:11:23;4.07;;;3.10;;
40695;SDS011;40425;51.102;17.208;2023-05-02T21:16:24;3.50;;;2.70;;
40695;SDS011;40425;51.102;17.208;2023-05-02T21:21:24;4.40;;;2.75;;
40695;SDS011;40425;51.102;17.208;2023-05-02T21:26:25;5.35;;;3.22;;
40695;SDS011;40425;51.102;17.208;2023-05-02T21:31:26;6.53;;;2.92;;
40695;SDS011;40425;51.102;17.208;2023-05-02T21:36:27;6.50;;;2.78;;
40695;SDS011;40425;51.102;17.208;2023-05-02T21:41:28;3.38;;;2.22;;
40695;SDS011;40425;51.102;17.208;2023-05-02T21:46:29;4.28;;;2.30;;
40695;SDS011;40425;51.102;17.208;2023-05-02T21:51:30;4.35;;;1.90;;
40695;SDS011;40425;51.102;17.208;2023-05-02T21:56:33;5.15;;;1.75;;
40695;SDS011;40425;51.102;17.208;2023-05-02T22:01:34;5.55;;;1.90;;
40695;SDS011;40425;51.102;17.208;2023-05-02T22:06:35;6.28;;;3.00;;
40695;SDS011;40425;51.102;17.208;2023-05-02T22:11:36;5.40;;;2.55;;
40695;SDS011;40425;51.102;17.208;2023-05-02T22:16:37;5.95;;;2.95;;
40695;SDS011;40425;51.102;17.208;2023-05-02T22:21:39;7.60;;;4.65;;
40695;SDS011;40425;51.102;17.208;2023-05-02T22:26:39;10.55;;;3.75;;
40695;SDS011;40425;51.102;17.208;2023-05-02T22:31:40;15.25;;;3.65;;
40695;SDS011;40425;51.102;17.208;2023-05-02T22:36:41;7.43;;;3.75;;
40695;SDS011;40425;51.102;17.208;2023-05-02T22:41:42;10.55;;;4.30;;
40695;SDS011;40425;51.102;17.208;2023-05-02T22:46:43;10.15;;;4.63;;
40695;SDS011;40425;51.102;17.208;2023-05-02T22:51:44;9.13;;;4.60;;
40695;SDS011;40425;51.102;17.208;2023-05-02T22:56:47;7.80;;;4.00;;
40695;SDS011;40425;51.102;17.208;2023-05-02T23:01:48;8.20;;;4.45;;
40695;SDS011;40425;51.102;17.208;2023-05-02T23:06:49;10.15;;;3.70;;
40695;SDS011;40425;51.102;17.208;2023-05-02T23:11:50;13.02;;;4.95;;
40695;SDS011;40425;51.102;17.208;2023-05-02T23:16:52;9.65;;;4.40;;
40695;SDS011;40425;51.102;17.208;2023-05-02T23:21:56;10.90;;;4.65;;
40695;SDS011;40425;51.102;17.208;2023-05-02T23:26:58;8.73;;;5.18;;
40695;SDS011;40425;51.102;17.208;2023-05-02T23:31:59;11.77;;;5.40;;
40695;SDS011;40425;51.102;17.208;2023-05-02T23:37:00;14.32;;;5.28;;
40695;SDS011;40425;51.102;17.208;2023-05-02T23:42:02;11.02;;;4.40;;
40695;SDS011;40425;51.102;17.208;2023-05-02T23:47:03;8.57;;;4.18;;
40695;SDS011;40425;51.102;17.208;2023-05-02T23:52:05;7.97;;;2.45;;
40695;SDS011;40425;51.102;17.208;2023-05-02T23:57:06;8.45;;;2.60;;
